Time;durP1;ratioP1;P1;durP2;ratioP2;P2;SDS_P1;SDS_P2;PMS_P1;PMS_P2;Temp;Humidity;BMP_temperature;BMP_pressure;BME280_temperature;BME280_humidity;BME280_pressure;Samples;Min_cycle;Max_cycle;Signal;HPM_P1;HPM_P2
2021/12/25 00:02:09;;;;;;;137.77;83.70;;;5.70;95.40;;;;;;4878733;29;20382;-76
2021/12/25 00:04:35;;;;;;;130.23;83.97;;;5.60;95.20;;;;;;4878611;29;20021;-75
2021/12/25 00:07:01;;;;;;;130.17;78.50;;;5.70;95.40;;;;;;4892846;29;20052;-75
2021/12/25 00:09:26;;;;;;;123.00;79.47;;;5.70;95.30;;;;;;4878769;29;20506;-76
2021/12/25 00:11:53;;;;;;;123.13;81.03;;;5.70;95.20;;;;;;4878553;29;20021;-75
2021/12/25 00:14:20;;;;;;;131.57;80.83;;;5.70;95.20;;;;;;4878546;29;20054;-76
2021/12/25 00:16:46;;;;;;;118.23;79.70;;;5.70;95.10;;;;;;4878867;29;20017;-76
2021/12/25 00:19:12;;;;;;;129.77;78.93;;;5.80;95.10;;;;;;4878719;29;20044;-76
2021/12/25 00:21:38;;;;;;;115.73;76.27;;;5.80;94.90;;;;;;4881659;29;20029;-75
2021/12/25 00:24:04;;;;;;;114.80;74.87;;;5.80;94.90;;;;;;4881794;29;20403;-76
2021/12/25 00:27:08;;;;;;;114.80;73.83;;;5.80;94.70;;;;;;4881746;29;20037;-76
2021/12/25 00:32:29;;;;;;;119.57;77.37;;;5.80;94.70;;;;;;4881562;29;20037;-75
2021/12/25 00:34:42;;;;;;;112.70;72.07;;;5.80;94.60;;;;;;4881284;29;20029;-76
2021/12/25 00:37:08;;;;;;;109.17;73.40;;;5.80;94.10;;;;;;4881368;29;20029;-76
2021/12/25 00:39:35;;;;;;;108.20;72.77;;;5.80;94.10;;;;;;4881355;29;20040;-76
2021/12/25 00:42:01;;;;;;;111.33;71.53;;;5.90;94.10;;;;;;4881597;29;20055;-75
2021/12/25 00:44:28;;;;;;;114.23;71.07;;;5.80;94.10;;;;;;4881467;29;20033;-76
2021/12/25 00:46:55;;;;;;;119.60;72.63;;;5.90;93.90;;;;;;4881187;29;20021;-75
2021/12/25 00:49:20;;;;;;;112.73;72.67;;;5.90;94.00;;;;;;4881280;29;20057;-75
2021/12/25 00:51:46;;;;;;;117.40;73.80;;;5.90;94.10;;;;;;4881305;29;20021;-76
2021/12/25 00:54:12;;;;;;;109.23;73.37;;;5.90;94.10;;;;;;4880938;29;20403;-76
2021/12/25 00:56:38;;;;;;;112.87;73.73;;;5.80;94.20;;;;;;4881240;29;20028;-76
2021/12/25 00:59:04;;;;;;;124.03;77.23;;;5.90;94.30;;;;;;4881263;29;20033;-75
2021/12/25 01:01:30;;;;;;;122.40;79.13;;;5.80;94.60;;;;;;4881229;29;20105;-75
2021/12/25 01:03:56;;;;;;;122.23;79.20;;;5.80;94.60;;;;;;4881064;29;20057;-76
2021/12/25 01:06:21;;;;;;;119.47;77.57;;;5.80;94.50;;;;;;4880934;29;20021;-75
2021/12/25 01:08:47;;;;;;;124.87;75.57;;;5.80;94.60;;;;;;4880928;29;20028;-76
2021/12/25 01:11:14;;;;;;;114.57;74.60;;;5.80;94.60;;;;;;4880885;29;20032;-75
2021/12/25 01:13:47;;;;;;;120.20;76.87;;;5.80;94.60;;;;;;4880856;29;20025;-76
2021/12/25 01:16:52;;;;;;;118.73;74.50;;;5.80;94.60;;;;;;4895192;29;20037;-75
2021/12/25 01:29:19;;;;;;;121.53;73.70;;;5.90;94.60;;;;;;4880812;29;20060;-75
2021/12/25 01:37:23;;;;;;;139.17;77.23;;;5.80;94.70;;;;;;4880659;29;20029;-75
2021/12/25 01:40:22;;;;;;;136.87;79.77;;;5.90;94.80;;;;;;4880187;29;20033;-75
2021/12/25 01:48:25;;;;;;;127.50;75.80;;;5.90;94.80;;;;;;4880646;29;20076;-76
2021/12/25 01:50:53;;;;;;;128.90;76.10;;;5.90;94.80;;;;;;4880238;29;20025;-76
2021/12/25 01:53:19;;;;;;;141.77;83.10;;;5.90;94.70;;;;;;4880127;29;20029;-76
2021/12/25 01:55:45;;;;;;;130.50;79.67;;;5.90;94.80;;;;;;4880267;29;20057;-76
2021/12/25 01:58:11;;;;;;;138.67;79.30;;;5.90;94.80;;;;;;4878872;29;20037;-76
2021/12/25 02:00:51;;;;;;;136.03;79.97;;;6.00;94.80;;;;;;4877441;29;20458;-76
2021/12/25 02:03:21;;;;;;;144.13;85.13;;;6.00;94.90;;;;;;4877316;29;20033;-76
2021/12/25 02:05:47;;;;;;;144.00;81.67;;;6.00;95.00;;;;;;4879343;29;20033;-77
2021/12/25 02:08:13;;;;;;;136.80;80.77;;;5.90;94.90;;;;;;4894394;29;20071;-76
2021/12/25 02:10:39;;;;;;;129.03;78.73;;;6.00;95.00;;;;;;4880023;29;20040;-76
2021/12/25 02:13:04;;;;;;;133.23;79.30;;;6.00;94.90;;;;;;4879719;29;20545;-76
2021/12/25 02:15:32;;;;;;;136.67;81.23;;;6.00;94.80;;;;;;4879798;29;20035;-76
2021/12/25 02:20:49;;;;;;;129.77;78.63;;;5.90;95.10;;;;;;4879430;29;20041;-76
2021/12/25 02:23:21;;;;;;;127.07;78.93;;;5.90;95.20;;;;;;4879842;29;20017;-76
2021/12/25 02:25:48;;;;;;;141.18;80.50;;;5.90;95.10;;;;;;4879486;29;20044;-76
2021/12/25 02:28:16;;;;;;;143.20;85.13;;;5.90;94.80;;;;;;4879126;29;20085;-76
2021/12/25 02:30:44;;;;;;;142.87;85.73;;;5.70;94.90;;;;;;4879177;29;20034;-76
2021/12/25 02:33:09;;;;;;;146.33;82.20;;;5.70;95.20;;;;;;4879292;29;20025;-75
2021/12/25 02:35:35;;;;;;;139.17;84.53;;;5.70;95.30;;;;;;4879245;29;20054;-75
2021/12/25 02:38:01;;;;;;;129.60;81.00;;;5.70;95.10;;;;;;4879367;29;20596;-75
2021/12/25 02:40:27;;;;;;;139.43;84.73;;;5.70;95.20;;;;;;4879236;29;20067;-76
2021/12/25 02:42:53;;;;;;;135.63;82.17;;;5.60;95.20;;;;;;4878985;29;20542;-76
2021/12/25 02:45:20;;;;;;;138.07;85.27;;;5.60;95.30;;;;;;4879035;29;20033;-75
2021/12/25 02:47:50;;;;;;;134.23;81.33;;;5.60;95.40;;;;;;4879174;29;20032;-76
2021/12/25 02:50:28;;;;;;;135.43;84.07;;;5.60;95.50;;;;;;4879083;29;20025;-76
2021/12/25 02:52:56;;;;;;;133.90;82.73;;;5.60;95.60;;;;;;4879168;29;20519;-76
2021/12/25 02:55:22;;;;;;;132.27;79.43;;;5.60;95.60;;;;;;4878799;29;20045;-76
2021/12/25 02:57:52;;;;;;;127.13;78.43;;;5.60;95.60;;;;;;4878945;29;20474;-76
2021/12/25 03:00:21;;;;;;;136.27;83.07;;;5.70;95.50;;;;;;4879209;29;20084;-76
2021/12/25 03:02:48;;;;;;;130.80;82.10;;;5.70;95.40;;;;;;4879244;29;20033;-76
2021/12/25 03:05:14;;;;;;;127.53;79.97;;;5.70;95.50;;;;;;4879246;29;20025;-75
2021/12/25 03:07:40;;;;;;;134.77;80.43;;;5.70;95.40;;;;;;4879221;29;20166;-75
2021/12/25 03:10:07;;;;;;;128.83;78.27;;;5.70;95.20;;;;;;4877667;29;20115;-76
2021/12/25 03:12:46;;;;;;;135.80;81.00;;;5.80;95.30;;;;;;4879033;29;20025;-75
2021/12/25 03:15:15;;;;;;;143.33;85.17;;;5.70;95.30;;;;;;4879052;29;20093;-76
2021/12/25 03:17:41;;;;;;;138.40;81.10;;;5.70;95.40;;;;;;4879131;29;20440;-76
2021/12/25 03:20:09;;;;;;;139.90;84.20;;;5.70;95.50;;;;;;4878647;29;20040;-75
2021/12/25 03:22:37;;;;;;;141.33;85.07;;;5.60;95.30;;;;;;4878661;29;20030;-75
2021/12/25 03:25:06;;;;;;;140.77;84.03;;;5.60;95.50;;;;;;4878911;29;20162;-76
2021/12/25 03:27:34;;;;;;;137.70;87.17;;;5.60;95.70;;;;;;4878751;29;20025;-76
2021/12/25 03:30:00;;;;;;;136.67;83.63;;;5.60;95.70;;;;;;4878468;29;20108;-76
2021/12/25 03:32:26;;;;;;;139.13;83.87;;;5.60;95.70;;;;;;4878942;29;20021;-76
2021/12/25 03:34:51;;;;;;;142.80;85.40;;;5.60;95.60;;;;;;4878788;29;20025;-75
2021/12/25 03:37:17;;;;;;;140.50;88.97;;;5.50;95.60;;;;;;4878648;29;20068;-75
2021/12/25 03:39:43;;;;;;;142.30;86.93;;;5.50;95.60;;;;;;4878381;29;20068;-76
2021/12/25 03:42:08;;;;;;;146.33;86.50;;;5.50;95.80;;;;;;4878714;29;20033;-75
2021/12/25 03:44:35;;;;;;;140.97;85.20;;;5.50;95.60;;;;;;4878727;29;20112;-75
2021/12/25 03:47:11;;;;;;;132.97;84.80;;;5.60;95.70;;;;;;4878756;29;20029;-76
2021/12/25 03:53:09;;;;;;;123.70;80.37;;;5.60;95.70;;;;;;4879107;29;20084;-76
2021/12/25 03:58:02;;;;;;;135.90;83.20;;;5.60;95.30;;;;;;4882388;29;20493;-76
2021/12/25 04:00:31;;;;;;;127.90;81.47;;;5.70;95.50;;;;;;4882220;29;20037;-75
2021/12/25 04:03:02;;;;;;;144.63;86.50;;;5.70;95.30;;;;;;4882217;29;20104;-76
2021/12/25 04:05:31;;;;;;;145.53;88.00;;;5.50;95.20;;;;;;4881820;29;20470;-76
2021/12/25 04:10:23;;;;;;;137.20;87.97;;;5.50;95.40;;;;;;4882051;29;20108;-75
2021/12/25 04:12:49;;;;;;;141.07;86.90;;;5.50;95.50;;;;;;4881941;29;20033;-76
2021/12/25 04:15:15;;;;;;;147.40;87.97;;;5.50;95.70;;;;;;4882095;29;20545;-77
2021/12/25 04:17:40;;;;;;;135.20;84.67;;;5.60;95.80;;;;;;4882089;29;20462;-76
2021/12/25 04:20:07;;;;;;;140.93;84.43;;;5.60;95.70;;;;;;4881772;29;20055;-76
2021/12/25 04:22:43;;;;;;;137.77;86.23;;;5.60;95.60;;;;;;4882033;29;20025;-76
2021/12/25 04:25:09;;;;;;;132.40;85.17;;;5.60;95.80;;;;;;4882114;29;20496;-76
2021/12/25 04:27:36;;;;;;;137.77;83.43;;;5.60;95.60;;;;;;4881858;29;20034;-76
2021/12/25 04:30:15;;;;;;;132.37;83.73;;;5.60;95.60;;;;;;4881952;29;20037;-76
2021/12/25 05:02:26;;;;;;;113.50;74.97;;;5.90;94.50;;;;;;4881091;29;20165;-76
2021/12/25 05:04:57;;;;;;;124.93;78.18;;;5.90;94.70;;;;;;4881206;29;20021;-76
2021/12/25 05:07:23;;;;;;;126.83;79.63;;;5.90;94.70;;;;;;4881092;29;20031;-75
2021/12/25 05:09:49;;;;;;;131.33;81.40;;;5.80;94.70;;;;;;4880934;29;20108;-76
2021/12/25 05:12:14;;;;;;;122.90;78.67;;;5.80;94.80;;;;;;4880911;29;20391;-76
2021/12/25 05:14:40;;;;;;;130.37;82.50;;;5.80;95.00;;;;;;4880982;29;20442;-76
2021/12/25 05:17:07;;;;;;;123.30;80.43;;;5.80;95.00;;;;;;4880760;29;20461;-75
2021/12/25 05:19:34;;;;;;;138.77;85.47;;;5.80;95.10;;;;;;4880696;29;20036;-76
2021/12/25 05:21:59;;;;;;;130.00;82.50;;;5.80;95.10;;;;;;4880698;29;20409;-75
2021/12/25 05:24:27;;;;;;;139.40;85.70;;;5.70;95.20;;;;;;4880825;29;20112;-76
2021/12/25 05:26:57;;;;;;;142.70;89.90;;;5.70;95.30;;;;;;4880800;29;20053;-76
2021/12/25 05:29:26;;;;;;;143.17;88.27;;;5.60;95.40;;;;;;4880897;29;20146;-75
2021/12/25 05:31:52;;;;;;;133.20;85.40;;;5.60;95.60;;;;;;4880879;29;20025;-76
2021/12/25 05:34:19;;;;;;;141.50;84.77;;;5.60;95.70;;;;;;4880589;29;20396;-76
2021/12/25 05:36:44;;;;;;;141.73;83.37;;;5.60;95.80;;;;;;4880413;29;20036;-76
2021/12/25 05:39:13;;;;;;;134.67;82.83;;;5.70;95.80;;;;;;4880320;29;20033;-76
2021/12/25 05:41:39;;;;;;;132.33;83.93;;;5.70;95.70;;;;;;4880535;29;20120;-76
2021/12/25 05:44:05;;;;;;;123.90;82.50;;;5.70;95.60;;;;;;4880289;29;20112;-75
2021/12/25 05:46:31;;;;;;;138.60;84.63;;;5.70;95.60;;;;;;4880574;29;20041;-75
2021/12/25 05:48:57;;;;;;;132.37;85.80;;;5.70;95.40;;;;;;4880278;29;20132;-75
2021/12/25 05:51:23;;;;;;;140.77;84.67;;;5.70;95.50;;;;;;4880481;29;20033;-75
2021/12/25 05:53:48;;;;;;;136.97;86.53;;;5.70;95.60;;;;;;4880072;29;20109;-76
2021/12/25 05:56:15;;;;;;;140.90;84.50;;;5.70;95.60;;;;;;4880273;29;20041;-76
2021/12/25 05:58:41;;;;;;;139.83;83.57;;;5.80;95.60;;;;;;4880151;29;20045;-76
2021/12/25 06:01:07;;;;;;;140.80;85.03;;;5.80;95.50;;;;;;4880117;29;20041;-75
2021/12/25 06:03:33;;;;;;;126.67;79.37;;;5.80;95.60;;;;;;4880302;29;20022;-75
2021/12/25 06:05:59;;;;;;;118.30;76.37;;;5.90;95.60;;;;;;4880150;29;20508;-76
2021/12/25 06:08:26;;;;;;;118.40;75.23;;;6.00;95.20;;;;;;4880038;29;20033;-76
2021/12/25 06:10:52;;;;;;;118.97;74.33;;;6.00;94.90;;;;;;4880137;29;20073;-76
2021/12/25 06:13:20;;;;;;;118.63;74.60;;;6.10;94.70;;;;;;4879820;29;20496;-75
2021/12/25 06:15:47;;;;;;;116.53;74.30;;;6.10;94.50;;;;;;4879958;29;20389;-76
2021/12/25 06:18:13;;;;;;;118.80;74.37;;;6.10;94.60;;;;;;4879372;29;20402;-75
2021/12/25 06:20:39;;;;;;;123.53;79.07;;;6.00;94.70;;;;;;4879838;29;20037;-76
2021/12/25 06:23:05;;;;;;;121.30;76.07;;;6.00;94.80;;;;;;4879682;29;20080;-76
2021/12/25 06:25:31;;;;;;;127.67;79.10;;;6.00;95.00;;;;;;4879593;29;20025;-75
2021/12/25 06:27:57;;;;;;;125.97;76.07;;;6.00;95.10;;;;;;4879612;29;20041;-76
2021/12/25 06:30:22;;;;;;;129.23;79.63;;;6.00;95.20;;;;;;4879659;29;20028;-76
2021/12/25 06:32:48;;;;;;;135.60;80.73;;;6.00;95.20;;;;;;4879581;29;20029;-76
2021/12/25 06:35:14;;;;;;;124.97;79.30;;;6.00;95.30;;;;;;4879875;29;20153;-75
2021/12/25 06:37:41;;;;;;;131.00;77.33;;;6.00;95.40;;;;;;4879608;29;20027;-76
2021/12/25 06:40:10;;;;;;;129.73;80.97;;;6.00;95.30;;;;;;4879206;29;20119;-76
2021/12/25 06:42:36;;;;;;;123.93;76.00;;;6.00;95.20;;;;;;4879479;29;20021;-76
2021/12/25 06:45:02;;;;;;;135.20;80.57;;;6.00;95.20;;;;;;4879293;29;20367;-75
2021/12/25 06:47:28;;;;;;;127.37;78.70;;;6.00;95.20;;;;;;4893794;29;20025;-76
2021/12/25 06:49:53;;;;;;;132.10;78.13;;;6.00;95.30;;;;;;4879398;29;20037;-75
2021/12/25 06:52:19;;;;;;;131.73;79.63;;;6.00;95.20;;;;;;4878583;29;20045;-76
2021/12/25 06:54:45;;;;;;;127.93;77.77;;;6.00;95.20;;;;;;4879726;29;20124;-76
2021/12/25 06:57:10;;;;;;;123.43;76.73;;;6.00;95.20;;;;;;4879370;29;20040;-76
2021/12/25 06:59:36;;;;;;;137.63;80.57;;;6.10;95.50;;;;;;4879282;29;20044;-76
2021/12/25 07:02:02;;;;;;;135.90;79.70;;;6.10;95.30;;;;;;4879337;29;20483;-76
2021/12/25 07:04:28;;;;;;;141.87;84.53;;;6.00;95.30;;;;;;4879259;29;20108;-76
2021/12/25 07:06:53;;;;;;;133.23;80.90;;;6.00;95.30;;;;;;4879233;29;20427;-76
2021/12/25 07:09:19;;;;;;;143.60;82.70;;;6.00;95.40;;;;;;4879379;29;20056;-77
2021/12/25 07:11:45;;;;;;;148.63;85.37;;;6.00;95.30;;;;;;4879257;29;20025;-76
2021/12/25 07:14:11;;;;;;;144.37;85.37;;;6.00;95.40;;;;;;4879244;29;20080;-76
2021/12/25 07:16:38;;;;;;;143.20;84.47;;;6.00;95.60;;;;;;4879011;29;20493;-76
2021/12/25 07:19:04;;;;;;;132.67;79.50;;;6.00;95.60;;;;;;4878915;29;20029;-77
2021/12/25 07:21:30;;;;;;;128.07;79.67;;;6.00;95.60;;;;;;4879044;29;20487;-77
2021/12/25 07:23:56;;;;;;;124.70;79.57;;;6.00;95.60;;;;;;4879150;29;20021;-77
2021/12/25 07:26:23;;;;;;;125.67;77.47;;;6.10;95.50;;;;;;4878904;29;20029;-77
2021/12/25 07:28:48;;;;;;;125.73;79.17;;;6.10;95.50;;;;;;4878763;29;20027;-77
2021/12/25 07:31:15;;;;;;;127.73;80.40;;;6.10;95.20;;;;;;4882401;29;20397;-76
2021/12/25 07:33:42;;;;;;;126.23;78.23;;;6.00;95.20;;;;;;4882702;29;20025;-78
2021/12/25 07:36:12;;;;;;;126.27;81.87;;;6.00;95.30;;;;;;4883161;29;20048;-76
2021/12/25 07:38:38;;;;;;;136.23;85.60;;;6.00;95.20;;;;;;4882847;29;20036;-72
2021/12/25 07:41:05;;;;;;;141.60;88.27;;;5.90;95.40;;;;;;4882722;29;20112;-72
2021/12/25 07:43:30;;;;;;;137.20;85.57;;;5.80;95.40;;;;;;4882514;29;20025;-71
2021/12/25 07:45:56;;;;;;;145.73;86.17;;;5.80;95.60;;;;;;4882482;29;20270;-71
2021/12/25 07:48:24;;;;;;;147.43;87.63;;;5.80;95.50;;;;;;4882417;29;20025;-71
2021/12/25 07:50:51;;;;;;;136.70;83.50;;;5.80;95.60;;;;;;4881211;29;20031;-71
2021/12/25 07:53:16;;;;;;;142.63;88.40;;;5.80;95.60;;;;;;4881456;29;20117;-71
2021/12/25 07:55:43;;;;;;;160.47;95.37;;;5.80;95.60;;;;;;4880797;29;20124;-71
2021/12/25 07:58:09;;;;;;;173.07;99.97;;;5.70;95.70;;;;;;4878698;29;20784;-71
2021/12/25 08:00:36;;;;;;;153.17;95.07;;;5.80;95.90;;;;;;4878295;29;20499;-70
2021/12/25 08:03:01;;;;;;;158.50;96.10;;;5.70;96.00;;;;;;4878005;29;20025;-70
2021/12/25 08:05:27;;;;;;;147.33;87.97;;;5.80;96.10;;;;;;4880388;29;20125;-71
2021/12/25 08:07:53;;;;;;;155.83;89.80;;;5.70;95.90;;;;;;4880801;29;20021;-71
2021/12/25 08:10:20;;;;;;;157.30;90.63;;;5.70;95.90;;;;;;4880093;29;20024;-70
2021/12/25 08:12:47;;;;;;;158.10;90.03;;;5.70;95.90;;;;;;4877555;29;20056;-71
2021/12/25 08:15:14;;;;;;;170.23;95.27;;;5.60;96.10;;;;;;4879561;29;20033;-72
2021/12/25 08:17:41;;;;;;;167.37;93.27;;;5.60;96.20;;;;;;4877651;29;20134;-71
2021/12/25 08:20:08;;;;;;;193.07;115.27;;;5.60;96.40;;;;;;4877901;29;20041;-72
2021/12/25 08:22:34;;;;;;;174.60;96.80;;;5.70;96.50;;;;;;4878392;29;20104;-71
2021/12/25 08:25:00;;;;;;;162.27;92.27;;;5.80;96.40;;;;;;4880473;29;20033;-71
2021/12/25 08:27:25;;;;;;;162.00;90.23;;;5.80;96.30;;;;;;4902739;29;20021;-72
2021/12/25 08:29:52;;;;;;;152.13;91.53;;;5.90;96.30;;;;;;4880354;29;20376;-72
2021/12/25 08:32:17;;;;;;;136.10;83.00;;;5.90;96.20;;;;;;4880226;29;20032;-72
2021/12/25 08:34:44;;;;;;;131.10;81.07;;;6.00;96.00;;;;;;4879472;29;20033;-73
2021/12/25 08:37:11;;;;;;;143.30;82.53;;;6.10;95.60;;;;;;4906218;29;20057;-73
2021/12/25 08:39:37;;;;;;;145.53;83.20;;;6.10;95.40;;;;;;4881465;29;20037;-71
2021/12/25 08:42:05;;;;;;;132.37;77.47;;;6.10;95.30;;;;;;4881278;29;20468;-71
2021/12/25 08:44:39;;;;;;;141.77;82.00;;;6.10;95.30;;;;;;4881814;29;20394;-71
2021/12/25 08:47:11;;;;;;;136.20;81.97;;;6.10;95.30;;;;;;4881683;29;20029;-72
2021/12/25 08:49:40;;;;;;;145.25;81.63;;;6.10;95.30;;;;;;4881541;29;20093;-71
2021/12/25 08:52:12;;;;;;;143.67;81.47;;;6.10;95.50;;;;;;4881481;29;20098;-72
2021/12/25 08:54:38;;;;;;;147.32;84.03;;;6.10;95.60;;;;;;4881224;29;20056;-71
2021/12/25 08:57:05;;;;;;;137.70;80.93;;;6.10;95.60;;;;;;4881511;29;20053;-71
2021/12/25 08:59:33;;;;;;;140.53;80.80;;;6.20;95.50;;;;;;4881697;29;20085;-72
2021/12/25 09:01:59;;;;;;;137.63;77.97;;;6.20;95.40;;;;;;4881266;29;20036;-71
2021/12/25 09:04:25;;;;;;;116.97;76.07;;;6.20;95.40;;;;;;4881566;29;20028;-71
2021/12/25 09:06:51;;;;;;;133.97;79.07;;;6.30;94.90;;;;;;4881586;29;20033;-70
2021/12/25 09:09:16;;;;;;;132.60;76.67;;;6.30;94.70;;;;;;4881636;29;20037;-68
2021/12/25 09:11:42;;;;;;;130.00;80.33;;;6.30;94.70;;;;;;4881141;29;20077;-72
2021/12/25 09:14:08;;;;;;;139.87;82.20;;;6.30;94.80;;;;;;4880752;29;20033;-72
2021/12/25 09:16:34;;;;;;;144.43;84.50;;;6.40;94.70;;;;;;4881249;29;20025;-72
2021/12/25 09:19:00;;;;;;;137.60;80.70;;;6.40;95.00;;;;;;4881242;29;20053;-72
2021/12/25 09:21:26;;;;;;;139.43;82.33;;;6.40;95.00;;;;;;4881081;29;20028;-72
2021/12/25 09:23:52;;;;;;;139.03;82.07;;;6.40;95.00;;;;;;4880976;29;20025;-74
2021/12/25 09:26:18;;;;;;;137.57;78.43;;;6.40;95.10;;;;;;4880851;29;20029;-71
2021/12/25 09:28:47;;;;;;;147.63;83.90;;;6.40;95.10;;;;;;4880869;29;20029;-72
2021/12/25 09:31:14;;;;;;;145.17;84.67;;;6.40;95.10;;;;;;4880887;29;20025;-71
2021/12/25 09:33:40;;;;;;;135.80;81.30;;;6.40;95.10;;;;;;4880880;29;20657;-73
2021/12/25 09:36:06;;;;;;;137.00;78.97;;;6.40;95.10;;;;;;4879520;29;20033;-73
2021/12/25 09:38:34;;;;;;;143.10;81.90;;;6.50;95.10;;;;;;4879899;29;20108;-72
2021/12/25 09:41:02;;;;;;;128.60;77.43;;;6.40;95.10;;;;;;4880725;29;20037;-72
2021/12/25 09:43:28;;;;;;;145.07;80.83;;;6.50;95.10;;;;;;4880664;29;20025;-72
2021/12/25 09:45:54;;;;;;;134.57;77.87;;;6.50;95.10;;;;;;4880558;29;20414;-70
2021/12/25 09:48:20;;;;;;;142.07;79.20;;;6.50;95.20;;;;;;4880612;29;20074;-70
2021/12/25 09:50:46;;;;;;;141.17;80.17;;;6.50;95.30;;;;;;4880620;29;20072;-70
2021/12/25 09:53:14;;;;;;;135.33;78.73;;;6.50;95.20;;;;;;4879100;29;20029;-70
2021/12/25 09:55:42;;;;;;;137.67;75.93;;;6.50;94.90;;;;;;4910583;29;20407;-71
2021/12/25 09:58:07;;;;;;;121.40;72.07;;;6.50;94.90;;;;;;4880443;29;20036;-70
2021/12/25 10:00:41;;;;;;;132.83;73.33;;;6.50;94.70;;;;;;4880473;29;20041;-71
2021/12/25 10:03:07;;;;;;;122.53;71.57;;;6.50;94.50;;;;;;4880479;29;20021;-70
2021/12/25 10:05:37;;;;;;;118.80;71.33;;;6.60;94.50;;;;;;4880330;29;20048;-72
2021/12/25 10:08:11;;;;;;;116.97;68.83;;;6.60;94.10;;;;;;4879699;29;20386;-74
2021/12/25 10:10:43;;;;;;;109.00;67.73;;;6.60;94.10;;;;;;4880073;29;20599;-73
2021/12/25 10:13:23;;;;;;;116.47;71.90;;;6.70;93.90;;;;;;4879985;29;20550;-74
2021/12/25 10:15:51;;;;;;;118.93;71.13;;;6.70;94.00;;;;;;4879894;29;20112;-74
2021/12/25 10:18:25;;;;;;;128.07;76.10;;;6.70;93.90;;;;;;4879981;29;20539;-72
2021/12/25 10:20:51;;;;;;;128.67;79.87;;;6.70;94.10;;;;;;4879632;29;20037;-73
2021/12/25 10:23:22;;;;;;;130.27;79.83;;;6.60;94.70;;;;;;4879942;29;20039;-73
2021/12/25 10:25:55;;;;;;;145.87;81.20;;;6.60;94.80;;;;;;4880125;29;20048;-74
2021/12/25 10:28:26;;;;;;;149.40;86.50;;;6.60;94.70;;;;;;4880102;29;20025;-74
2021/12/25 10:30:58;;;;;;;139.43;85.00;;;6.50;94.80;;;;;;4879859;29;20077;-69
2021/12/25 10:33:31;;;;;;;131.27;78.60;;;6.40;95.00;;;;;;4879803;29;20029;-69
2021/12/25 10:36:05;;;;;;;132.87;76.77;;;6.50;95.10;;;;;;4879813;29;20017;-71
2021/12/25 10:38:31;;;;;;;124.80;73.17;;;6.50;94.90;;;;;;4879769;29;20056;-72
2021/12/25 10:41:20;;;;;;;133.63;75.90;;;6.50;94.80;;;;;;4879427;29;20045;-74
2021/12/25 10:43:48;;;;;;;129.00;71.47;;;6.50;95.10;;;;;;4879421;29;20041;-74
2021/12/25 10:46:15;;;;;;;118.27;69.30;;;6.40;95.30;;;;;;4879365;29;20029;-72
2021/12/25 10:48:40;;;;;;;129.77;71.73;;;6.50;95.10;;;;;;4879503;29;20021;-73
2021/12/25 10:51:26;;;;;;;130.93;72.83;;;6.50;95.10;;;;;;4879487;29;20044;-72
2021/12/25 10:53:54;;;;;;;129.23;70.97;;;6.50;95.00;;;;;;4879126;29;20036;-74
2021/12/25 10:56:20;;;;;;;121.00;67.93;;;6.60;94.90;;;;;;4879403;29;20044;-73
2021/12/25 10:58:46;;;;;;;159.20;94.03;;;6.70;94.80;;;;;;4877221;29;20040;-76
2021/12/25 11:01:14;;;;;;;185.77;118.70;;;6.70;94.60;;;;;;4876634;29;20037;-76
2021/12/25 11:03:43;;;;;;;165.93;102.07;;;6.70;94.40;;;;;;4877346;29;20119;-75
2021/12/25 11:06:17;;;;;;;117.83;72.20;;;6.70;94.30;;;;;;4879252;29;20479;-76
2021/12/25 11:08:44;;;;;;;120.33;72.17;;;6.80;94.20;;;;;;4879554;29;20029;-71
2021/12/25 11:11:11;;;;;;;129.70;84.67;;;6.80;94.20;;;;;;4879375;29;20029;-72
2021/12/25 11:13:43;;;;;;;132.13;83.80;;;6.90;93.90;;;;;;4879195;29;20040;-72
2021/12/25 11:16:13;;;;;;;105.63;63.58;;;6.90;93.70;;;;;;4879308;29;20025;-76
2021/12/25 11:19:11;;;;;;;92.67;53.97;;;6.90;93.80;;;;;;4879389;29;20112;-71
2021/12/25 11:21:44;;;;;;;101.20;57.00;;;7.00;93.70;;;;;;4878643;29;20045;-70
2021/12/25 11:24:09;;;;;;;;;;;7.00;94.10;;;;;;4877232;29;20160;-70
2021/12/25 11:26:37;;;;;;;105.53;56.47;;;7.00;93.90;;;;;;4876582;29;20006;-72
2021/12/25 11:29:05;;;;;;;102.93;56.87;;;7.10;93.90;;;;;;4876826;29;20036;-71
2021/12/25 11:31:31;;;;;;;107.27;60.50;;;7.10;93.90;;;;;;4878563;29;20496;-72
2021/12/25 11:33:58;;;;;;;108.80;64.00;;;7.10;93.90;;;;;;4878971;29;20067;-74
2021/12/25 11:36:24;;;;;;;110.57;63.70;;;7.10;93.80;;;;;;4879055;29;20062;-76
2021/12/25 11:38:50;;;;;;;113.87;65.00;;;7.10;93.70;;;;;;4878650;29;20033;-72
2021/12/25 11:41:17;;;;;;;112.73;65.43;;;7.10;93.50;;;;;;4878867;29;20037;-74
2021/12/25 11:43:46;;;;;;;120.23;69.13;;;7.20;93.50;;;;;;4878610;29;20109;-72
2021/12/25 11:46:14;;;;;;;117.67;69.57;;;7.20;93.50;;;;;;4909178;29;20378;-74
2021/12/25 11:48:40;;;;;;;116.10;68.30;;;7.20;93.50;;;;;;4878891;29;20104;-74
2021/12/25 11:51:22;;;;;;;114.03;67.07;;;7.20;93.40;;;;;;4878558;29;20036;-74
2021/12/25 11:56:35;;;;;;;101.07;61.67;;;7.30;94.50;;;;;;4878720;29;20089;-70
2021/12/25 11:59:13;;;;;;;101.10;59.67;;;7.20;94.30;;;;;;4878889;29;20119;-71
2021/12/25 12:01:40;;;;;;;99.87;58.30;;;7.30;94.10;;;;;;4878958;29;20029;-71
2021/12/25 12:04:11;;;;;;;97.00;59.23;;;7.30;93.70;;;;;;4878814;29;20036;-73
2021/12/25 12:06:46;;;;;;;91.50;55.13;;;7.30;93.70;;;;;;4878730;29;20501;-74
2021/12/25 12:09:16;;;;;;;92.73;57.47;;;7.30;93.50;;;;;;4877057;29;20078;-70
2021/12/25 12:11:47;;;;;;;82.33;51.67;;;7.30;93.80;;;;;;4877279;29;20101;-71
2021/12/25 12:14:26;;;;;;;93.90;55.80;;;7.20;94.50;;;;;;4877167;29;20391;-66
2021/12/25 12:16:58;;;;;;;98.67;56.30;;;7.30;94.60;;;;;;4879740;29;20037;-71
2021/12/25 12:19:31;;;;;;;93.70;54.22;;;7.20;94.90;;;;;;4880782;29;20062;-69
2021/12/25 12:28:01;;;;;;;80.10;47.43;;;7.20;94.30;;;;;;4879426;29;20033;-76
2021/12/25 12:30:51;;;;;;;74.57;43.83;;;7.30;94.00;;;;;;4880472;29;20104;-78
2021/12/25 12:33:17;;;;;;;69.83;43.80;;;7.30;93.80;;;;;;4880738;29;20456;-76
2021/12/25 12:35:46;;;;;;;74.60;45.03;;;7.30;93.60;;;;;;4880845;29;20039;-81
2021/12/25 12:38:27;;;;;;;86.23;49.10;;;7.30;93.50;;;;;;4880711;29;20089;-83
2021/12/25 12:41:26;;;;;;;84.57;50.57;;;7.30;93.60;;;;;;4880740;29;20037;-75
2021/12/25 12:44:03;;;;;;;84.37;49.57;;;7.30;93.40;;;;;;4879636;29;20048;-80
2021/12/25 12:46:47;;;;;;;90.37;52.83;;;7.40;93.30;;;;;;4879515;29;20029;-70
2021/12/25 12:49:14;;;;;;;89.87;54.20;;;7.40;93.50;;;;;;4879955;29;20435;-70
2021/12/25 12:51:40;;;;;;;97.53;59.97;;;7.40;93.40;;;;;;4879845;29;20142;-70
2021/12/25 12:54:06;;;;;;;95.67;59.87;;;7.40;93.50;;;;;;4879833;29;20082;-86
2021/12/25 12:56:32;;;;;;;99.83;57.17;;;7.40;93.50;;;;;;4880581;29;20041;-75
2021/12/25 12:58:58;;;;;;;91.40;54.43;;;7.40;93.70;;;;;;4880035;29;20036;-71
2021/12/25 13:01:25;;;;;;;91.87;55.30;;;7.40;93.40;;;;;;4879388;29;20432;-69
2021/12/25 13:04:00;;;;;;;102.43;58.47;;;7.40;93.70;;;;;;4897256;29;20463;-77
2021/12/25 13:06:28;;;;;;;105.80;61.70;;;7.40;94.80;;;;;;4901027;29;20374;-69
2021/12/25 13:08:54;;;;;;;103.70;59.07;;;7.40;94.80;;;;;;4900005;29;20516;-70
2021/12/25 13:11:33;;;;;;;85.97;53.27;;;7.40;94.50;;;;;;4900097;29;20028;-73
2021/12/25 13:14:01;;;;;;;87.17;51.03;;;7.40;94.30;;;;;;4900030;29;20035;-71
2021/12/25 13:16:38;;;;;;;81.87;49.03;;;7.40;95.10;;;;;;4899549;29;20402;-66
2021/12/25 13:19:05;;;;;;;76.97;48.17;;;7.40;95.00;;;;;;4899778;29;20035;-67
2021/12/25 13:21:33;;;;;;;76.07;45.37;;;7.50;94.50;;;;;;4900044;29;20390;-68
2021/12/25 13:24:06;;;;;;;72.83;44.20;;;7.50;94.20;;;;;;4898547;29;20521;-69
2021/12/25 13:26:39;;;;;;;77.00;46.05;;;7.50;93.90;;;;;;4899449;29;20036;-66
2021/12/25 13:29:10;;;;;;;78.87;46.13;;;7.50;93.70;;;;;;4899143;29;20021;-70
2021/12/25 13:31:38;;;;;;;77.10;44.23;;;7.50;93.60;;;;;;4898909;29;20107;-67
2021/12/25 13:34:18;;;;;;;83.03;47.53;;;7.50;93.80;;;;;;4898904;29;20035;-71
2021/12/25 13:36:50;;;;;;;76.67;43.87;;;7.50;95.10;;;;;;4899281;29;20040;-66
2021/12/25 13:39:18;;;;;;;88.63;49.42;;;7.50;95.30;;;;;;4899479;29;20426;-65
2021/12/25 13:41:52;;;;;;;87.07;51.00;;;7.50;95.10;;;;;;4899572;29;20033;-67
2021/12/25 13:44:34;;;;;;;87.70;50.83;;;7.50;94.70;;;;;;4899450;29;20054;-74
2021/12/25 13:47:14;;;;;;;93.07;52.15;;;7.50;94.40;;;;;;4899486;29;20039;-76
2021/12/25 13:49:55;;;;;;;80.90;46.90;;;7.50;94.00;;;;;;4899665;29;20382;-68